Time;durP1;ratioP1;P1;durP2;ratioP2;P2;SDS_P1;SDS_P2;PMS_P1;PMS_P2;Temp;Humidity;BMP_temperature;BMP_pressure;BME280_temperature;BME280_humidity;BME280_pressure;Samples;Min_cycle;Max_cycle;Signal;HPM_P1;HPM_P2
2021/07/31 00:01:14;;;;;;;6.50;4.05;;;;;;;;;;4956796;28;20126;-78
2021/07/31 00:03:41;;;;;;;7.75;4.90;;;;;;;;;;4957034;29;20114;-78
2021/07/31 00:06:08;;;;;;;7.85;4.20;;;;;;;;;;4964200;29;20047;-80
2021/07/31 00:08:35;;;;;;;8.40;4.97;;;;;;;;;;4979938;28;20031;-80
2021/07/31 00:11:02;;;;;;;7.30;4.60;;;;;;;;;;4979483;28;20039;-81
2021/07/31 00:13:28;;;;;;;9.13;4.90;;;;;;;;;;4979369;28;20039;-81
2021/07/31 00:15:56;;;;;;;7.43;4.75;;;;;;;;;;4979017;28;20058;-81
2021/07/31 00:18:23;;;;;;;8.30;4.75;;;;;;;;;;4977284;28;20095;-80
2021/07/31 00:20:50;;;;;;;8.82;4.97;;;;;;;;;;4959858;29;20516;-79
2021/07/31 00:23:17;;;;;;;7.18;4.90;;;;;;;;;;4959495;29;20050;-79
2021/07/31 00:25:44;;;;;;;7.30;4.40;;;;;;;;;;4959632;29;20055;-80
2021/07/31 00:28:10;;;;;;;6.78;4.28;;;;;;;;;;4959168;28;20047;-78
2021/07/31 00:30:37;;;;;;;7.25;4.60;;;;;;;;;;4957922;28;20098;-78
2021/07/31 00:33:05;;;;;;;8.93;4.70;;;;;;;;;;4956804;28;20055;-80
2021/07/31 00:35:32;;;;;;;7.60;4.63;;;;;;;;;;4956109;29;20110;-79
2021/07/31 00:37:59;;;;;;;7.78;4.88;;;;;;;;;;4956157;28;20055;-79
2021/07/31 00:40:26;;;;;;;6.95;4.47;;;;;;;;;;4960776;29;20460;-79
2021/07/31 00:42:53;;;;;;;7.50;4.65;;;;;;;;;;4960465;29;20051;-79
2021/07/31 00:45:19;;;;;;;7.75;4.35;;;;;;;;;;4960226;29;20497;-79
2021/07/31 00:47:46;;;;;;;6.88;4.53;;;;;;;;;;4959600;28;20055;-80
2021/07/31 00:50:15;;;;;;;8.77;5.70;;;;;;;;;;4959792;29;20047;-79
2021/07/31 00:52:43;;;;;;;7.60;4.65;;;;;;;;;;4959841;29;20047;-78
2021/07/31 00:55:12;;;;;;;8.50;4.88;;;;;;;;;;4959676;29;20650;-79
2021/07/31 00:57:41;;;;;;;7.75;4.75;;;;;;;;;;4959820;28;20515;-79
2021/07/31 01:00:09;;;;;;;8.80;5.18;;;;;;;;;;4959874;29;20125;-79
2021/07/31 01:02:35;;;;;;;9.70;5.25;;;;;;;;;;4960338;29;20047;-79
2021/07/31 01:05:02;;;;;;;9.38;5.18;;;;;;;;;;4959354;28;20051;-79
2021/07/31 01:07:31;;;;;;;9.50;4.97;;;;;;;;;;4959946;29;20051;-79
2021/07/31 01:09:57;;;;;;;9.10;4.97;;;;;;;;;;4959403;29;20063;-79
2021/07/31 01:12:24;;;;;;;9.80;4.97;;;;;;;;;;4959592;28;20562;-79
2021/07/31 01:14:51;;;;;;;8.13;5.28;;;;;;;;;;4959766;28;20047;-80
2021/07/31 01:17:18;;;;;;;8.55;5.00;;;;;;;;;;4959754;29;20047;-79
2021/07/31 01:19:45;;;;;;;7.82;5.68;;;;;;;;;;4959470;29;20043;-79
2021/07/31 01:22:13;;;;;;;11.20;5.97;;;;;;;;;;4960242;29;20055;-80
2021/07/31 01:24:40;;;;;;;8.70;5.68;;;;;;;;;;4959829;29;20051;-80
2021/07/31 01:27:06;;;;;;;8.20;5.22;;;;;;;;;;4958901;29;20051;-79
2021/07/31 01:29:33;;;;;;;7.90;5.25;;;;;;;;;;4959255;29;20094;-79
2021/07/31 01:32:00;;;;;;;9.95;5.80;;;;;;;;;;4959071;28;20106;-80
2021/07/31 01:34:27;;;;;;;8.10;5.78;;;;;;;;;;4959770;29;20083;-79
2021/07/31 01:36:54;;;;;;;9.18;5.40;;;;;;;;;;4959908;29;20055;-79
2021/07/31 01:39:22;;;;;;;9.18;5.35;;;;;;;;;;4960517;29;20055;-79
2021/07/31 01:41:49;;;;;;;8.25;5.10;;;;;;;;;;4960212;29;20102;-80
2021/07/31 01:44:16;;;;;;;9.82;5.22;;;;;;;;;;4959754;28;20133;-79
2021/07/31 01:46:43;;;;;;;8.75;5.10;;;;;;;;;;4959754;29;20416;-79
2021/07/31 01:49:10;;;;;;;8.90;5.43;;;;;;;;;;4961859;29;20051;-80
2021/07/31 01:51:37;;;;;;;8.05;5.18;;;;;;;;;;4959885;28;20058;-78
2021/07/31 01:54:03;;;;;;;9.57;5.75;;;;;;;;;;4958646;29;20047;-78
2021/07/31 01:56:32;;;;;;;8.18;5.38;;;;;;;;;;4957865;28;20047;-79
2021/07/31 01:58:58;;;;;;;9.48;5.10;;;;;;;;;;4957787;29;20047;-79
2021/07/31 02:01:25;;;;;;;9.00;5.43;;;;;;;;;;4958077;29;20051;-78
2021/07/31 02:03:52;;;;;;;8.02;4.80;;;;;;;;;;4958681;28;20078;-78
2021/07/31 02:06:19;;;;;;;8.55;5.28;;;;;;;;;;4959046;28;20047;-78
2021/07/31 02:08:46;;;;;;;7.75;5.03;;;;;;;;;;4960443;29;20051;-77
2021/07/31 02:11:13;;;;;;;7.90;4.85;;;;;;;;;;4963623;29;20071;-77
2021/07/31 02:13:41;;;;;;;8.65;5.40;;;;;;;;;;4963044;28;20039;-79
2021/07/31 02:16:08;;;;;;;8.13;5.30;;;;;;;;;;4961466;28;20068;-79
2021/07/31 02:18:35;;;;;;;8.02;5.43;;;;;;;;;;4961502;28;20032;-79
2021/07/31 02:21:02;;;;;;;8.70;5.70;;;;;;;;;;4960215;28;20064;-79
2021/07/31 02:23:28;;;;;;;8.38;5.50;;;;;;;;;;4946069;29;20099;-78
2021/07/31 02:25:55;;;;;;;7.30;5.25;;;;;;;;;;4938935;29;20111;-79
2021/07/31 02:28:22;;;;;;;9.45;5.55;;;;;;;;;;4938832;29;20048;-79
2021/07/31 02:30:50;;;;;;;10.07;5.53;;;;;;;;;;4938326;29;20135;-78
2021/07/31 02:33:17;;;;;;;8.15;4.78;;;;;;;;;;4938370;29;20055;-78
2021/07/31 02:35:44;;;;;;;7.05;5.05;;;;;;;;;;4937910;29;20047;-79
2021/07/31 02:38:10;;;;;;;7.47;4.63;;;;;;;;;;4938319;29;20067;-78
2021/07/31 02:40:37;;;;;;;7.80;4.50;;;;;;;;;;4938320;29;20051;-79
2021/07/31 02:43:04;;;;;;;10.10;4.53;;;;;;;;;;4938477;29;20047;-79
2021/07/31 02:45:31;;;;;;;9.05;5.20;;;;;;;;;;4938037;29;20126;-79
2021/07/31 02:48:01;;;;;;;8.63;4.93;;;;;;;;;;4938143;29;20047;-79
2021/07/31 02:50:28;;;;;;;7.63;4.72;;;;;;;;;;4938431;29;20054;-78
2021/07/31 02:52:55;;;;;;;8.35;4.78;;;;;;;;;;4938192;29;20044;-79
2021/07/31 02:55:21;;;;;;;7.40;4.55;;;;;;;;;;4937975;29;20052;-79
2021/07/31 02:57:48;;;;;;;7.25;4.53;;;;;;;;;;4937675;29;20056;-78
2021/07/31 03:00:15;;;;;;;7.38;4.60;;;;;;;;;;4937842;29;20055;-78
2021/07/31 03:02:42;;;;;;;7.95;4.60;;;;;;;;;;4936957;29;20509;-78
2021/07/31 03:05:11;;;;;;;7.07;4.60;;;;;;;;;;4937649;29;20047;-79
2021/07/31 03:07:38;;;;;;;6.53;4.40;;;;;;;;;;4938750;29;20044;-79
2021/07/31 03:10:06;;;;;;;6.60;4.47;;;;;;;;;;4938417;29;20051;-79
2021/07/31 03:12:33;;;;;;;7.88;5.05;;;;;;;;;;4938207;29;20055;-78
2021/07/31 03:15:00;;;;;;;9.23;4.75;;;;;;;;;;4938053;29;20127;-78
2021/07/31 03:17:27;;;;;;;7.82;4.47;;;;;;;;;;4937634;29;20473;-79
2021/07/31 03:19:54;;;;;;;8.38;4.80;;;;;;;;;;4939598;29;20063;-78
2021/07/31 03:22:22;;;;;;;9.02;4.90;;;;;;;;;;4938291;29;20390;-79
2021/07/31 03:24:49;;;;;;;8.75;4.85;;;;;;;;;;4938704;29;20043;-78
2021/07/31 03:27:15;;;;;;;7.65;4.57;;;;;;;;;;4943652;29;20390;-79
2021/07/31 03:29:42;;;;;;;7.40;4.65;;;;;;;;;;4942070;29;20056;-79
2021/07/31 03:32:09;;;;;;;9.68;4.82;;;;;;;;;;4939415;29;20099;-78
2021/07/31 03:34:36;;;;;;;9.07;5.30;;;;;;;;;;4939236;29;20114;-79
2021/07/31 03:37:02;;;;;;;7.22;4.82;;;;;;;;;;4939693;29;20106;-78
2021/07/31 03:39:31;;;;;;;8.48;4.78;;;;;;;;;;4938124;29;20052;-78
2021/07/31 03:41:58;;;;;;;8.82;5.13;;;;;;;;;;4938382;29;20048;-79
2021/07/31 03:44:25;;;;;;;10.00;4.68;;;;;;;;;;4936707;29;20083;-78
2021/07/31 03:46:52;;;;;;;9.45;5.72;;;;;;;;;;4938194;29;20114;-79
2021/07/31 03:49:20;;;;;;;8.32;4.82;;;;;;;;;;4938521;29;20449;-78
2021/07/31 03:51:48;;;;;;;7.47;5.10;;;;;;;;;;4936915;29;20056;-78
2021/07/31 03:54:14;;;;;;;7.70;4.90;;;;;;;;;;4937015;29;20103;-78
2021/07/31 03:56:43;;;;;;;8.82;5.05;;;;;;;;;;4936751;29;20462;-78
2021/07/31 03:59:09;;;;;;;8.73;5.38;;;;;;;;;;4936859;29;20055;-79
2021/07/31 04:01:36;;;;;;;8.05;5.07;;;;;;;;;;4938248;29;20056;-78
2021/07/31 04:04:03;;;;;;;8.30;5.47;;;;;;;;;;4937468;29;20489;-79
2021/07/31 04:06:32;;;;;;;8.75;5.05;;;;;;;;;;4938496;29;20107;-78
2021/07/31 04:08:59;;;;;;;9.10;5.40;;;;;;;;;;4939914;29;20498;-78
2021/07/31 04:11:26;;;;;;;8.70;5.57;;;;;;;;;;4936301;29;20051;-78
2021/07/31 04:13:55;;;;;;;8.30;5.53;;;;;;;;;;4937832;29;20134;-79
2021/07/31 04:16:22;;;;;;;8.55;5.38;;;;;;;;;;4939852;29;20127;-78
2021/07/31 04:18:48;;;;;;;8.68;5.10;;;;;;;;;;4939480;29;20131;-77
2021/07/31 04:21:15;;;;;;;7.93;5.40;;;;;;;;;;4943050;29;20052;-79
2021/07/31 04:23:42;;;;;;;8.30;5.03;;;;;;;;;;4941181;29;20075;-79
2021/07/31 04:26:13;;;;;;;7.43;4.47;;;;;;;;;;4940167;29;20051;-77
2021/07/31 04:28:40;;;;;;;8.07;4.65;;;;;;;;;;4941924;29;20048;-80
2021/07/31 04:31:10;;;;;;;7.97;5.15;;;;;;;;;;4941080;29;20048;-79
2021/07/31 04:33:37;;;;;;;7.10;4.78;;;;;;;;;;4941528;29;20051;-79
2021/07/31 04:36:04;;;;;;;9.23;5.35;;;;;;;;;;4940900;29;20051;-78
2021/07/31 04:38:31;;;;;;;8.07;5.30;;;;;;;;;;4939806;29;20107;-79
2021/07/31 04:40:58;;;;;;;8.60;4.85;;;;;;;;;;4942236;29;20413;-79
2021/07/31 04:43:25;;;;;;;9.45;5.00;;;;;;;;;;4940755;29;20425;-79
2021/07/31 04:45:52;;;;;;;8.05;4.95;;;;;;;;;;4939681;29;20102;-79
2021/07/31 04:48:21;;;;;;;7.97;4.97;;;;;;;;;;4940110;29;20496;-79
2021/07/31 04:50:55;;;;;;;7.82;5.30;;;;;;;;;;4940879;29;20048;-79
2021/07/31 04:53:22;;;;;;;8.20;5.75;;;;;;;;;;4940483;29;20103;-79
2021/07/31 04:55:49;;;;;;;8.43;5.75;;;;;;;;;;4939488;29;20099;-80
2021/07/31 04:58:16;;;;;;;10.15;5.75;;;;;;;;;;4939196;29;20111;-80
2021/07/31 05:00:42;;;;;;;8.77;5.53;;;;;;;;;;4939714;29;20048;-79
2021/07/31 05:03:09;;;;;;;9.95;5.30;;;;;;;;;;4939742;29;20462;-79
2021/07/31 05:05:38;;;;;;;7.53;5.00;;;;;;;;;;4939560;29;20052;-79
2021/07/31 05:08:09;;;;;;;8.05;4.90;;;;;;;;;;4939283;29;20044;-80
2021/07/31 05:10:38;;;;;;;;;;;;;;;;;;4939847;29;20044;-77
2021/07/31 05:13:05;;;;;;;6.88;4.78;;;;;;;;;;4939501;29;19927;-77
2021/07/31 05:15:31;;;;;;;8.73;5.00;;;;;;;;;;4938051;29;20060;-79
2021/07/31 05:17:59;;;;;;;8.93;5.10;;;;;;;;;;4937980;29;20111;-78
2021/07/31 05:20:26;;;;;;;8.35;5.07;;;;;;;;;;4937647;29;20421;-79
2021/07/31 05:22:54;;;;;;;10.60;6.00;;;;;;;;;;4938877;29;20052;-78
2021/07/31 05:25:21;;;;;;;9.63;5.68;;;;;;;;;;4940311;29;20134;-78
2021/07/31 05:27:48;;;;;;;7.95;5.82;;;;;;;;;;4941271;29;20110;-79
2021/07/31 05:30:15;;;;;;;7.82;5.40;;;;;;;;;;4941747;29;20048;-79
2021/07/31 05:32:41;;;;;;;8.90;5.30;;;;;;;;;;4943223;29;20048;-79
2021/07/31 05:35:09;;;;;;;7.82;4.80;;;;;;;;;;4942407;29;20055;-79
2021/07/31 05:37:36;;;;;;;8.18;5.50;;;;;;;;;;4942714;29;20075;-78
2021/07/31 05:40:06;;;;;;;8.07;4.82;;;;;;;;;;4942838;29;20209;-79
2021/07/31 05:42:32;;;;;;;8.20;6.10;;;;;;;;;;4942911;29;20056;-79
2021/07/31 05:45:01;;;;;;;7.93;5.00;;;;;;;;;;4942192;29;20058;-79
2021/07/31 05:47:28;;;;;;;9.15;5.38;;;;;;;;;;4942617;29;20102;-79
2021/07/31 05:49:55;;;;;;;8.35;5.10;;;;;;;;;;4942697;29;20134;-79
2021/07/31 05:52:25;;;;;;;8.80;5.68;;;;;;;;;;4942040;29;20395;-79
2021/07/31 05:54:52;;;;;;;8.55;5.20;;;;;;;;;;4941341;29;20047;-79
2021/07/31 05:57:20;;;;;;;8.07;5.00;;;;;;;;;;4942723;29;20048;-79
2021/07/31 05:59:47;;;;;;;7.90;4.97;;;;;;;;;;4942445;29;20052;-79
2021/07/31 06:02:14;;;;;;;8.43;5.13;;;;;;;;;;4941861;29;20457;-79
2021/07/31 06:04:42;;;;;;;8.25;5.40;;;;;;;;;;4941874;29;20114;-79
2021/07/31 06:07:10;;;;;;;8.65;5.18;;;;;;;;;;4941525;29;20043;-79
2021/07/31 06:09:37;;;;;;;7.85;4.93;;;;;;;;;;4942347;29;20047;-79
2021/07/31 06:12:06;;;;;;;7.63;5.20;;;;;;;;;;4942401;29;20056;-78
2021/07/31 06:14:37;;;;;;;9.25;5.63;;;;;;;;;;4942321;29;20102;-79
2021/07/31 06:17:04;;;;;;;8.25;5.10;;;;;;;;;;4943276;29;20055;-79
2021/07/31 06:19:34;;;;;;;8.73;5.63;;;;;;;;;;4942471;29;20072;-79
2021/07/31 06:22:02;;;;;;;8.63;5.30;;;;;;;;;;4943052;29;20055;-79
2021/07/31 06:24:30;;;;;;;10.02;5.80;;;;;;;;;;4940522;29;20052;-79
2021/07/31 06:26:57;;;;;;;8.85;5.57;;;;;;;;;;4942317;29;20052;-80
2021/07/31 06:29:24;;;;;;;8.38;5.20;;;;;;;;;;4956039;29;20052;-80
2021/07/31 06:31:52;;;;;;;8.82;5.65;;;;;;;;;;4961079;28;20133;-79
2021/07/31 06:34:19;;;;;;;8.50;5.25;;;;;;;;;;4959765;29;20134;-79
2021/07/31 06:36:46;;;;;;;10.43;5.40;;;;;;;;;;4958761;28;20110;-79
2021/07/31 06:39:12;;;;;;;10.32;6.38;;;;;;;;;;4959664;29;20053;-79
2021/07/31 06:41:39;;;;;;;15.80;10.18;;;;;;;;;;4959035;28;20106;-79
2021/07/31 06:44:06;;;;;;;10.70;6.90;;;;;;;;;;4961638;29;20043;-79
2021/07/31 06:46:33;;;;;;;8.65;5.63;;;;;;;;;;4966220;29;20119;-79
2021/07/31 06:49:01;;;;;;;8.63;5.45;;;;;;;;;;4967162;28;20087;-79
2021/07/31 06:51:28;;;;;;;9.60;5.82;;;;;;;;;;4965408;29;20051;-79
2021/07/31 06:53:55;;;;;;;7.75;4.53;;;;;;;;;;4961609;29;20079;-79
2021/07/31 06:56:21;;;;;;;9.38;6.00;;;;;;;;;;4955255;29;20047;-79
2021/07/31 06:58:48;;;;;;;8.25;5.63;;;;;;;;;;4959317;29;20090;-78
2021/07/31 07:01:16;;;;;;;8.82;5.57;;;;;;;;;;4953166;29;20051;-79
2021/07/31 07:03:43;;;;;;;8.70;5.13;;;;;;;;;;4958890;29;20083;-78
2021/07/31 07:06:12;;;;;;;8.40;5.30;;;;;;;;;;4957765;29;20055;-78
2021/07/31 07:08:39;;;;;;;9.32;5.78;;;;;;;;;;4957183;29;20153;-78
2021/07/31 07:11:06;;;;;;;9.25;5.82;;;;;;;;;;4951547;29;20592;-78
2021/07/31 07:13:33;;;;;;;9.43;5.55;;;;;;;;;;4955174;28;20075;-78
2021/07/31 07:16:04;;;;;;;9.35;5.80;;;;;;;;;;4959836;28;20047;-79
2021/07/31 07:18:31;;;;;;;8.32;5.85;;;;;;;;;;4960737;29;20138;-79
2021/07/31 07:20:57;;;;;;;9.52;5.78;;;;;;;;;;4935164;29;20054;-79
2021/07/31 07:23:26;;;;;;;8.10;5.72;;;;;;;;;;4930221;29;20783;-80
2021/07/31 07:25:52;;;;;;;9.25;5.22;;;;;;;;;;4955142;29;20488;-77
2021/07/31 07:28:19;;;;;;;8.90;5.65;;;;;;;;;;4978451;28;20035;-78
2021/07/31 07:30:46;;;;;;;9.02;5.60;;;;;;;;;;4978279;28;20063;-78
2021/07/31 07:33:13;;;;;;;11.07;5.80;;;;;;;;;;4979324;28;20031;-79
2021/07/31 07:35:42;;;;;;;9.52;6.10;;;;;;;;;;4978223;28;20051;-79
2021/07/31 07:38:09;;;;;;;8.93;5.75;;;;;;;;;;4978056;29;20061;-78
2021/07/31 07:40:37;;;;;;;13.45;6.57;;;;;;;;;;4965435;29;20079;-80
2021/07/31 07:43:04;;;;;;;8.95;5.82;;;;;;;;;;4961108;29;20106;-80
2021/07/31 07:45:30;;;;;;;7.38;5.40;;;;;;;;;;4960353;29;20071;-80
2021/07/31 07:47:57;;;;;;;8.82;6.30;;;;;;;;;;4959135;28;20070;-79
2021/07/31 07:50:24;;;;;;;9.60;6.07;;;;;;;;;;4971290;23;20102;-76
2021/07/31 07:52:51;;;;;;;8.70;5.55;;;;;;;;;;4953794;28;20102;-76
2021/07/31 07:55:18;;;;;;;9.18;5.82;;;;;;;;;;4953846;29;20043;-76
2021/07/31 07:57:46;;;;;;;10.23;6.05;;;;;;;;;;4956152;29;20047;-76
2021/07/31 08:00:16;;;;;;;10.02;5.43;;;;;;;;;;4953450;28;20114;-76
2021/07/31 08:02:43;;;;;;;;;;;;;;;;;;4953479;29;20054;-76
2021/07/31 08:05:13;;;;;;;8.07;5.38;;;;;;;;;;4943402;29;19923;-75
2021/07/31 08:07:44;;;;;;;7.90;5.53;;;;;;;;;;4944961;29;20119;-74
2021/07/31 08:10:12;;;;;;;9.27;5.47;;;;;;;;;;4951141;29;20381;-75
2021/07/31 08:12:39;;;;;;;7.80;5.18;;;;;;;;;;4954185;28;20062;-74
2021/07/31 08:15:08;;;;;;;11.98;9.18;;;;;;;;;;4944505;28;20047;-75
2021/07/31 08:17:35;;;;;;;9.82;7.03;;;;;;;;;;4944069;29;20051;-75
2021/07/31 08:20:02;;;;;;;11.70;9.30;;;;;;;;;;4947941;28;20571;-76
2021/07/31 08:22:29;;;;;;;7.63;5.32;;;;;;;;;;4953462;28;20048;-74
2021/07/31 08:24:56;;;;;;;7.32;5.22;;;;;;;;;;4942747;28;20180;-74
2021/07/31 08:27:22;;;;;;;7.65;4.90;;;;;;;;;;4944917;28;20098;-75
2021/07/31 08:29:50;;;;;;;7.43;4.80;;;;;;;;;;4943244;29;20059;-76
2021/07/31 08:32:18;;;;;;;8.13;4.53;;;;;;;;;;4952924;29;20043;-75
2021/07/31 08:34:45;;;;;;;7.68;4.72;;;;;;;;;;4952582;28;20043;-75
2021/07/31 08:37:12;;;;;;;9.63;4.95;;;;;;;;;;4953166;28;20043;-76
2021/07/31 08:39:41;;;;;;;6.65;4.43;;;;;;;;;;4944848;28;20535;-76
2021/07/31 08:42:10;;;;;;;8.07;5.07;;;;;;;;;;4943892;29;20044;-76
2021/07/31 08:44:37;;;;;;;8.95;6.10;;;;;;;;;;4942008;28;20286;-75
2021/07/31 08:47:06;;;;;;;8.40;5.63;;;;;;;;;;4943737;28;20090;-76
2021/07/31 08:49:36;;;;;;;7.70;4.88;;;;;;;;;;4944289;29;20050;-76
2021/07/31 08:52:05;;;;;;;7.93;5.40;;;;;;;;;;4950840;29;20489;-75
2021/07/31 08:54:32;;;;;;;7.63;4.22;;;;;;;;;;4953328;28;20043;-75
2021/07/31 08:56:59;;;;;;;7.00;4.68;;;;;;;;;;4942194;28;20043;-75
2021/07/31 08:59:28;;;;;;;8.25;4.97;;;;;;;;;;4944199;28;20107;-75
2021/07/31 09:01:55;;;;;;;11.07;5.65;;;;;;;;;;4947716;29;20529;-75
2021/07/31 09:04:24;;;;;;;10.93;6.20;;;;;;;;;;4947534;28;20047;-75
2021/07/31 09:06:52;;;;;;;8.10;5.78;;;;;;;;;;4946805;29;20048;-75
2021/07/31 09:09:26;;;;;;;7.30;5.18;;;;;;;;;;4956332;28;20047;-75
2021/07/31 09:11:57;;;;;;;8.70;6.70;;;;;;;;;;4946670;28;20082;-75
2021/07/31 09:14:25;;;;;;;10.13;6.18;;;;;;;;;;4954918;29;20051;-75
2021/07/31 09:16:51;;;;;;;10.30;6.25;;;;;;;;;;4955255;28;20047;-75
2021/07/31 09:19:19;;;;;;;8.65;5.72;;;;;;;;;;4945958;28;20059;-75
2021/07/31 09:21:46;;;;;;;8.48;5.72;;;;;;;;;;4946787;28;20047;-75
2021/07/31 09:24:20;;;;;;;8.93;5.82;;;;;;;;;;4945449;29;20043;-75
2021/07/31 09:26:49;;;;;;;8.45;5.82;;;;;;;;;;4953986;29;20134;-76
2021/07/31 09:29:20;;;;;;;9.30;5.90;;;;;;;;;;4956053;28;20123;-76
2021/07/31 09:31:54;;;;;;;8.30;5.25;;;;;;;;;;4954722;29;20043;-76
2021/07/31 09:34:30;;;;;;;7.75;5.75;;;;;;;;;;4945088;28;20048;-76
2021/07/31 09:37:11;;;;;;;8.50;6.03;;;;;;;;;;4952030;29;20055;-75
2021/07/31 09:39:59;;;;;;;9.38;5.50;;;;;;;;;;4956459;28;20094;-75
2021/07/31 09:42:31;;;;;;;8.35;5.65;;;;;;;;;;4955340;29;20046;-74
2021/07/31 09:44:59;;;;;;;8.40;5.53;;;;;;;;;;4953886;29;20043;-74
2021/07/31 09:47:25;;;;;;;8.82;5.65;;;;;;;;;;4956213;28;20055;-75
2021/07/31 09:49:53;;;;;;;12.10;7.80;;;;;;;;;;4939688;28;20457;-74
2021/07/31 09:52:22;;;;;;;10.68;7.82;;;;;;;;;;4936844;29;20497;-74
2021/07/31 09:54:49;;;;;;;8.10;5.57;;;;;;;;;;4936307;29;20111;-75
2021/07/31 09:57:17;;;;;;;9.80;5.70;;;;;;;;;;4937139;29;20054;-76
2021/07/31 09:59:46;;;;;;;9.25;5.82;;;;;;;;;;4937080;29;20460;-75
2021/07/31 10:02:16;;;;;;;9.20;5.53;;;;;;;;;;4950263;29;20507;-75
2021/07/31 10:04:44;;;;;;;14.00;8.02;;;;;;;;;;4955594;29;20095;-75
2021/07/31 10:07:11;;;;;;;10.15;7.40;;;;;;;;;;4956812;29;20134;-76
2021/07/31 10:09:41;;;;;;;7.93;5.25;;;;;;;;;;4956181;29;20051;-76
2021/07/31 10:12:11;;;;;;;9.63;5.10;;;;;;;;;;4954845;28;20050;-75
2021/07/31 10:14:39;;;;;;;;;;;;;;;;;;4956242;28;20504;-76
2021/07/31 10:17:06;;;;;;;8.93;5.30;;;;;;;;;;4955893;29;19930;-76
2021/07/31 10:19:45;;;;;;;8.57;5.28;;;;;;;;;;4955735;28;20059;-76
2021/07/31 10:22:12;;;;;;;8.20;5.95;;;;;;;;;;4955551;28;20098;-76
2021/07/31 10:25:06;;;;;;;8.55;5.15;;;;;;;;;;4955129;28;20110;-76
2021/07/31 10:27:34;;;;;;;9.05;5.13;;;;;;;;;;4955459;28;20490;-76
2021/07/31 10:30:05;;;;;;;8.45;5.25;;;;;;;;;;4955711;28;20047;-76
2021/07/31 10:32:43;;;;;;;7.50;4.95;;;;;;;;;;4955816;28;20054;-76
2021/07/31 10:35:29;;;;;;;10.25;5.80;;;;;;;;;;4956094;28;20083;-80
2021/07/31 10:37:57;;;;;;;7.32;5.05;;;;;;;;;;4957447;28;20059;-78
2021/07/31 10:40:45;;;;;;;8.38;5.25;;;;;;;;;;4958113;28;20059;-79
2021/07/31 10:43:12;;;;;;;80.07;35.05;;;;;;;;;;4950160;28;20055;-75
2021/07/31 10:45:40;;;;;;;12.60;8.00;;;;;;;;;;4955501;29;20066;-78
2021/07/31 10:48:23;;;;;;;10.75;7.00;;;;;;;;;;4955010;28;20054;-75
2021/07/31 10:50:53;;;;;;;10.23;6.22;;;;;;;;;;4954920;28;20051;-76
2021/07/31 10:53:21;;;;;;;10.13;6.60;;;;;;;;;;4955010;29;20084;-76
2021/07/31 10:56:02;;;;;;;10.07;5.82;;;;;;;;;;4954385;28;20552;-76
2021/07/31 10:58:31;;;;;;;8.93;5.63;;;;;;;;;;4955474;28;20047;-75
2021/07/31 11:01:22;;;;;;;8.75;5.60;;;;;;;;;;4957646;28;20066;-76
2021/07/31 11:03:50;;;;;;;9.27;4.70;;;;;;;;;;4959936;29;20632;-75
2021/07/31 11:06:17;;;;;;;7.60;5.07;;;;;;;;;;4959534;29;20464;-75
2021/07/31 11:09:11;;;;;;;9.15;6.45;;;;;;;;;;4957012;29;20083;-75
2021/07/31 11:11:38;;;;;;;10.77;7.78;;;;;;;;;;4957613;29;20489;-76
2021/07/31 11:14:04;;;;;;;8.82;6.05;;;;;;;;;;4957946;28;20468;-76
2021/07/31 11:16:33;;;;;;;10.88;5.35;;;;;;;;;;4957080;28;20047;-75
2021/07/31 11:19:01;;;;;;;8.32;5.65;;;;;;;;;;4956442;28;20114;-75
2021/07/31 11:21:30;;;;;;;9.35;5.13;;;;;;;;;;4958051;28;20134;-76
2021/07/31 11:23:59;;;;;;;9.68;5.65;;;;;;;;;;4959214;28;20051;-76
2021/07/31 11:26:47;;;;;;;6.32;4.43;;;;;;;;;;4959931;28;20047;-75
2021/07/31 11:29:17;;;;;;;7.53;4.70;;;;;;;;;;4955192;28;20448;-76
2021/07/31 11:31:59;;;;;;;7.10;4.70;;;;;;;;;;4956994;28;20078;-76
2021/07/31 11:34:36;;;;;;;8.55;5.00;;;;;;;;;;4955987;28;20075;-76
2021/07/31 11:37:03;;;;;;;7.72;5.15;;;;;;;;;;4956385;28;20519;-77
2021/07/31 11:39:30;;;;;;;8.75;5.07;;;;;;;;;;4957053;28;20054;-75
2021/07/31 11:41:58;;;;;;;8.02;5.10;;;;;;;;;;4957070;28;20138;-76
2021/07/31 11:44:27;;;;;;;6.85;4.63;;;;;;;;;;4957150;28;20579;-76
2021/07/31 11:46:55;;;;;;;6.72;4.55;;;;;;;;;;4955250;28;20047;-76
2021/07/31 11:49:26;;;;;;;8.50;5.50;;;;;;;;;;4955160;28;20051;-76
2021/07/31 11:51:54;;;;;;;6.80;4.22;;;;;;;;;;4955354;28;20047;-75
2021/07/31 11:54:21;;;;;;;8.95;4.75;;;;;;;;;;4954216;28;20398;-75
2021/07/31 11:56:48;;;;;;;7.15;4.47;;;;;;;;;;4954498;28;20047;-76
2021/07/31 11:59:23;;;;;;;6.70;4.60;;;;;;;;;;4957411;28;20495;-75
2021/07/31 12:01:52;;;;;;;8.82;5.05;;;;;;;;;;4955039;28;20134;-76
2021/07/31 12:04:45;;;;;;;6.60;5.15;;;;;;;;;;4954324;29;20063;-76
2021/07/31 12:07:14;;;;;;;9.07;3.90;;;;;;;;;;4954546;29;20058;-77
2021/07/31 12:09:43;;;;;;;7.05;4.57;;;;;;;;;;4954543;29;20398;-77
2021/07/31 12:12:27;;;;;;;7.22;4.22;;;;;;;;;;4954720;29;20051;-75
2021/07/31 12:15:13;;;;;;;7.22;4.40;;;;;;;;;;4949465;28;20055;-75
2021/07/31 12:17:45;;;;;;;7.80;4.38;;;;;;;;;;4952296;29;20055;-76
2021/07/31 12:20:29;;;;;;;8.55;4.53;;;;;;;;;;4951978;29;20047;-76
2021/07/31 12:22:56;;;;;;;6.90;4.13;;;;;;;;;;4952129;29;20059;-75
2021/07/31 12:25:23;;;;;;;7.40;4.25;;;;;;;;;;4951859;29;20047;-76
2021/07/31 12:27:55;;;;;;;7.38;5.07;;;;;;;;;;4952234;29;20158;-75
2021/07/31 12:30:27;;;;;;;7.43;4.45;;;;;;;;;;4952319;28;20051;-76
2021/07/31 12:32:54;;;;;;;8.30;4.40;;;;;;;;;;4952105;28;20044;-77
2021/07/31 12:35:34;;;;;;;6.75;4.30;;;;;;;;;;4953296;28;20055;-76
2021/07/31 12:38:01;;;;;;;7.27;4.60;;;;;;;;;;4956057;28;20059;-77
2021/07/31 12:40:29;;;;;;;6.53;4.30;;;;;;;;;;4955979;28;20102;-76
2021/07/31 12:42:55;;;;;;;7.75;4.70;;;;;;;;;;4955791;28;20058;-76
2021/07/31 12:45:22;;;;;;;6.45;4.38;;;;;;;;;;4955109;28;20048;-76
2021/07/31 12:47:49;;;;;;;5.88;4.00;;;;;;;;;;4956450;28;20055;-76
2021/07/31 12:50:16;;;;;;;6.68;3.85;;;;;;;;;;4955769;28;20051;-76
2021/07/31 12:52:44;;;;;;;9.02;4.90;;;;;;;;;;4955785;28;20058;-76
2021/07/31 12:55:11;;;;;;;6.47;4.13;;;;;;;;;;4954992;28;20138;-76
2021/07/31 12:57:37;;;;;;;6.15;4.18;;;;;;;;;;4955607;28;20063;-76
2021/07/31 13:00:06;;;;;;;6.93;4.70;;;;;;;;;;4955725;28;20055;-76
2021/07/31 13:02:33;;;;;;;8.35;5.20;;;;;;;;;;4955590;28;20469;-77
2021/07/31 13:05:00;;;;;;;6.93;4.68;;;;;;;;;;4955437;28;20456;-75
2021/07/31 13:07:27;;;;;;;6.68;4.28;;;;;;;;;;4956406;29;20050;-76
2021/07/31 13:09:55;;;;;;;6.93;4.63;;;;;;;;;;4955803;28;20114;-76
2021/07/31 13:12:22;;;;;;;6.30;4.53;;;;;;;;;;4955367;28;20051;-75
2021/07/31 13:14:48;;;;;;;6.20;4.13;;;;;;;;;;4954914;29;20055;-76
2021/07/31 13:17:16;;;;;;;5.75;4.35;;;;;;;;;;4955934;28;20196;-76
2021/07/31 13:19:42;;;;;;;6.10;3.90;;;;;;;;;;4955361;28;20047;-76
2021/07/31 13:22:09;;;;;;;5.80;4.50;;;;;;;;;;4955313;29;20501;-76
2021/07/31 13:24:36;;;;;;;5.93;3.90;;;;;;;;;;4954683;28;20059;-75
2021/07/31 13:27:05;;;;;;;6.57;4.80;;;;;;;;;;4955058;28;20051;-75
2021/07/31 13:29:31;;;;;;;8.23;6.47;;;;;;;;;;4955169;29;20055;-77
2021/07/31 13:31:59;;;;;;;7.35;5.55;;;;;;;;;;4955277;28;20047;-76
2021/07/31 13:34:26;;;;;;;6.18;4.60;;;;;;;;;;4955355;29;20110;-75
2021/07/31 13:36:58;;;;;;;7.60;4.70;;;;;;;;;;4953953;29;20559;-74
2021/07/31 13:39:25;;;;;;;6.68;4.53;;;;;;;;;;4955307;28;20054;-76
2021/07/31 13:41:53;;;;;;;7.60;4.50;;;;;;;;;;4955499;28;20117;-75
2021/07/31 13:44:22;;;;;;;6.35;4.38;;;;;;;;;;4955337;29;20047;-75
2021/07/31 13:46:49;;;;;;;9.73;5.28;;;;;;;;;;4954139;28;20055;-75
2021/07/31 13:49:15;;;;;;;6.85;4.65;;;;;;;;;;4954864;28;20047;-75
2021/07/31 13:51:42;;;;;;;7.07;4.05;;;;;;;;;;4954785;28;20508;-75
2021/07/31 13:54:09;;;;;;;6.97;4.55;;;;;;;;;;4954392;28;20094;-76
2021/07/31 13:56:36;;;;;;;6.38;4.10;;;;;;;;;;4953967;29;20456;-75
2021/07/31 13:59:04;;;;;;;6.45;4.60;;;;;;;;;;4954490;29;20098;-75
2021/07/31 14:01:33;;;;;;;5.63;4.13;;;;;;;;;;4954216;29;20218;-75
2021/07/31 14:04:00;;;;;;;7.87;4.33;;;;;;;;;;4954310;28;20134;-75
2021/07/31 14:06:27;;;;;;;6.13;4.20;;;;;;;;;;4953366;28;20055;-75
2021/07/31 14:08:54;;;;;;;9.05;6.70;;;;;;;;;;4954221;28;20062;-76
2021/07/31 14:11:21;;;;;;;8.13;5.97;;;;;;;;;;4954164;28;20047;-75
2021/07/31 14:13:48;;;;;;;6.13;4.28;;;;;;;;;;4934865;29;20553;-76
2021/07/31 14:16:15;;;;;;;6.80;4.10;;;;;;;;;;4934095;29;20052;-74
2021/07/31 14:18:43;;;;;;;8.10;4.55;;;;;;;;;;4934971;29;20048;-76
2021/07/31 14:21:10;;;;;;;6.63;3.90;;;;;;;;;;4935093;29;20769;-74
2021/07/31 14:23:38;;;;;;;7.32;4.22;;;;;;;;;;4935230;29;20344;-74
2021/07/31 14:26:09;;;;;;;5.80;4.20;;;;;;;;;;4934466;29;20119;-75
2021/07/31 14:28:37;;;;;;;5.80;4.15;;;;;;;;;;4935201;29;20087;-75
2021/07/31 14:31:03;;;;;;;9.07;4.47;;;;;;;;;;4935975;29;20131;-77
2021/07/31 14:33:30;;;;;;;6.68;4.35;;;;;;;;;;4935276;29;20048;-75
2021/07/31 14:35:59;;;;;;;6.18;4.30;;;;;;;;;;4934061;29;20529;-74
2021/07/31 14:38:25;;;;;;;6.88;4.28;;;;;;;;;;4934909;29;20114;-76
2021/07/31 14:40:52;;;;;;;5.53;4.20;;;;;;;;;;4934500;29;20502;-75
2021/07/31 14:43:19;;;;;;;8.13;4.78;;;;;;;;;;4934575;29;20043;-76
2021/07/31 14:45:46;;;;;;;8.32;5.03;;;;;;;;;;4938083;29;20051;-75
2021/07/31 14:48:14;;;;;;;8.65;4.72;;;;;;;;;;4936753;29;20758;-75
2021/07/31 14:50:42;;;;;;;6.90;4.55;;;;;;;;;;4934050;29;20054;-76